sensor_id;sensor_type;location;lat;lon;timestamp;temperature;humidity
13721;DHT22;6932;51.438;5.470;2022-12-07T00:01:15;12.40;89.20
13721;DHT22;6932;51.438;5.470;2022-12-07T00:03:45;12.40;89.30
13721;DHT22;6932;51.438;5.470;2022-12-07T00:06:14;12.40;89.30
13721;DHT22;6932;51.438;5.470;2022-12-07T00:08:41;12.40;89.40
13721;DHT22;6932;51.438;5.470;2022-12-07T00:11:09;12.30;89.40
13721;DHT22;6932;51.438;5.470;2022-12-07T00:13:37;12.40;89.40
13721;DHT22;6932;51.438;5.470;2022-12-07T00:16:14;12.30;89.40
13721;DHT22;6932;51.438;5.470;2022-12-07T00:18:42;12.30;89.40
13721;DHT22;6932;51.438;5.470;2022-12-07T00:21:15;12.30;89.30
13721;DHT22;6932;51.438;5.470;2022-12-07T00:23:45;12.30;89.20
13721;DHT22;6932;51.438;5.470;2022-12-07T00:26:14;12.30;89.20
13721;DHT22;6932;51.438;5.470;2022-12-07T00:28:47;12.30;89.20
13721;DHT22;6932;51.438;5.470;2022-12-07T00:31:15;12.30;89.20
13721;DHT22;6932;51.438;5.470;2022-12-07T00:33:42;12.30;89.20
13721;DHT22;6932;51.438;5.470;2022-12-07T00:36:11;12.30;89.10
13721;DHT22;6932;51.438;5.470;2022-12-07T00:38:41;12.20;89.00
13721;DHT22;6932;51.438;5.470;2022-12-07T00:41:15;12.20;89.00
13721;DHT22;6932;51.438;5.470;2022-12-07T00:43:44;12.20;89.10
13721;DHT22;6932;51.438;5.470;2022-12-07T00:46:11;12.10;89.00
13721;DHT22;6932;51.438;5.470;2022-12-07T00:48:38;12.10;89.00
13721;DHT22;6932;51.438;5.470;2022-12-07T00:51:04;12.10;89.00
13721;DHT22;6932;51.438;5.470;2022-12-07T00:53:34;12.10;89.10
13721;DHT22;6932;51.438;5.470;2022-12-07T00:56:12;12.10;89.10
13721;DHT22;6932;51.438;5.470;2022-12-07T00:58:43;12.00;89.00
13721;DHT22;6932;51.438;5.470;2022-12-07T01:01:10;12.10;89.00
13721;DHT22;6932;51.438;5.470;2022-12-07T01:03:37;12.00;89.00
13721;DHT22;6932;51.438;5.470;2022-12-07T01:06:03;12.00;89.00
13721;DHT22;6932;51.438;5.470;2022-12-07T01:08:29;12.00;89.00
13721;DHT22;6932;51.438;5.470;2022-12-07T01:11:04;12.00;89.00
13721;DHT22;6932;51.438;5.470;2022-12-07T01:13:33;12.00;89.00
13721;DHT22;6932;51.438;5.470;2022-12-07T01:16:00;11.90;89.00
13721;DHT22;6932;51.438;5.470;2022-12-07T01:18:29;11.90;89.00
13721;DHT22;6932;51.438;5.470;2022-12-07T01:21:03;11.90;89.00
13721;DHT22;6932;51.438;5.470;2022-12-07T01:23:37;11.90;89.10
13721;DHT22;6932;51.438;5.470;2022-12-07T01:26:07;11.90;89.00
13721;DHT22;6932;51.438;5.470;2022-12-07T01:28:36;11.90;89.00
13721;DHT22;6932;51.438;5.470;2022-12-07T01:31:05;11.80;89.00
13721;DHT22;6932;51.438;5.470;2022-12-07T01:34:06;11.90;89.10
13721;DHT22;6932;51.438;5.470;2022-12-07T01:37:27;11.80;89.00
13721;DHT22;6932;51.438;5.470;2022-12-07T01:39:53;11.90;88.90
13721;DHT22;6932;51.438;5.470;2022-12-07T01:42:19;11.80;88.90
13721;DHT22;6932;51.438;5.470;2022-12-07T01:45:39;11.80;88.90
13721;DHT22;6932;51.438;5.470;2022-12-07T01:48:04;11.80;89.10
13721;DHT22;6932;51.438;5.470;2022-12-07T01:50:32;11.80;89.20
13721;DHT22;6932;51.438;5.470;2022-12-07T01:53:01;11.80;89.20
13721;DHT22;6932;51.438;5.470;2022-12-07T01:55:30;11.80;89.30
13721;DHT22;6932;51.438;5.470;2022-12-07T01:57:56;11.80;89.30
13721;DHT22;6932;51.438;5.470;2022-12-07T02:00:23;11.80;89.30
13721;DHT22;6932;51.438;5.470;2022-12-07T02:03:09;11.80;89.30
13721;DHT22;6932;51.438;5.470;2022-12-07T02:05:42;11.80;89.30
13721;DHT22;6932;51.438;5.470;2022-12-07T02:08:10;11.80;89.40
13721;DHT22;6932;51.438;5.470;2022-12-07T02:10:37;11.80;89.60
13721;DHT22;6932;51.438;5.470;2022-12-07T02:20:13;11.80;89.50
13721;DHT22;6932;51.438;5.470;2022-12-07T02:31:55;11.80;89.60
13721;DHT22;6932;51.438;5.470;2022-12-07T02:34:55;11.80;89.50
13721;DHT22;6932;51.438;5.470;2022-12-07T02:40:38;11.80;89.50
13721;DHT22;6932;51.438;5.470;2022-12-07T02:46:06;11.80;89.60
13721;DHT22;6932;51.438;5.470;2022-12-07T02:48:37;11.80;89.50
13721;DHT22;6932;51.438;5.470;2022-12-07T02:51:05;11.80;89.50
13721;DHT22;6932;51.438;5.470;2022-12-07T02:53:37;11.80;89.50
13721;DHT22;6932;51.438;5.470;2022-12-07T02:56:27;11.80;89.40
13721;DHT22;6932;51.438;5.470;2022-12-07T03:11:42;11.80;89.20
13721;DHT22;6932;51.438;5.470;2022-12-07T03:17:16;11.80;89.30
13721;DHT22;6932;51.438;5.470;2022-12-07T03:19:52;11.80;89.30
13721;DHT22;6932;51.438;5.470;2022-12-07T03:22:23;11.70;89.30
13721;DHT22;6932;51.438;5.470;2022-12-07T03:24:57;11.70;89.40
13721;DHT22;6932;51.438;5.470;2022-12-07T03:27:29;11.70;89.40
13721;DHT22;6932;51.438;5.470;2022-12-07T03:30:00;11.70;89.40
13721;DHT22;6932;51.438;5.470;2022-12-07T03:32:35;11.70;89.40
13721;DHT22;6932;51.438;5.470;2022-12-07T03:35:18;11.70;89.40
13721;DHT22;6932;51.438;5.470;2022-12-07T03:37:50;11.80;89.40
13721;DHT22;6932;51.438;5.470;2022-12-07T03:40:37;11.70;89.40
13721;DHT22;6932;51.438;5.470;2022-12-07T03:43:07;11.70;89.30
13721;DHT22;6932;51.438;5.470;2022-12-07T03:45:51;11.80;89.40
13721;DHT22;6932;51.438;5.470;2022-12-07T03:48:59;11.70;89.30
13721;DHT22;6932;51.438;5.470;2022-12-07T03:52:08;11.80;89.30
13721;DHT22;6932;51.438;5.470;2022-12-07T03:54:41;11.80;89.30
13721;DHT22;6932;51.438;5.470;2022-12-07T03:57:09;11.80;89.30
13721;DHT22;6932;51.438;5.470;2022-12-07T03:59:37;11.80;89.30
13721;DHT22;6932;51.438;5.470;2022-12-07T04:02:06;11.70;89.30
13721;DHT22;6932;51.438;5.470;2022-12-07T04:04:33;11.80;89.40
13721;DHT22;6932;51.438;5.470;2022-12-07T04:07:00;11.80;89.40
13721;DHT22;6932;51.438;5.470;2022-12-07T04:09:25;11.70;89.40
13721;DHT22;6932;51.438;5.470;2022-12-07T04:11:51;11.80;89.50
13721;DHT22;6932;51.438;5.470;2022-12-07T04:14:17;11.80;89.50
13721;DHT22;6932;51.438;5.470;2022-12-07T04:16:56;11.80;89.50
13721;DHT22;6932;51.438;5.470;2022-12-07T04:19:26;11.80;89.50
13721;DHT22;6932;51.438;5.470;2022-12-07T04:21:54;11.80;89.50
13721;DHT22;6932;51.438;5.470;2022-12-07T04:24:21;11.80;89.50
13721;DHT22;6932;51.438;5.470;2022-12-07T04:26:47;11.80;89.60
13721;DHT22;6932;51.438;5.470;2022-12-07T04:29:14;11.80;89.60
13721;DHT22;6932;51.438;5.470;2022-12-07T04:31:41;11.80;89.60
13721;DHT22;6932;51.438;5.470;2022-12-07T04:34:07;11.80;89.60
13721;DHT22;6932;51.438;5.470;2022-12-07T04:36:33;11.80;89.50
13721;DHT22;6932;51.438;5.470;2022-12-07T04:39:00;11.80;90.10
13721;DHT22;6932;51.438;5.470;2022-12-07T04:41:26;11.90;89.60
13721;DHT22;6932;51.438;5.470;2022-12-07T04:43:57;11.80;90.00
13721;DHT22;6932;51.438;5.470;2022-12-07T04:46:27;11.80;89.50
13721;DHT22;6932;51.438;5.470;2022-12-07T04:48:55;11.90;89.60
13721;DHT22;6932;51.438;5.470;2022-12-07T04:51:26;11.80;89.60
13721;DHT22;6932;51.438;5.470;2022-12-07T04:53:55;11.90;89.60
13721;DHT22;6932;51.438;5.470;2022-12-07T04:56:21;11.90;89.60
13721;DHT22;6932;51.438;5.470;2022-12-07T04:58:48;11.90;89.60
13721;DHT22;6932;51.438;5.470;2022-12-07T05:01:16;11.90;89.60
13721;DHT22;6932;51.438;5.470;2022-12-07T05:03:42;11.90;89.60
13721;DHT22;6932;51.438;5.470;2022-12-07T05:06:09;11.90;89.60
13721;DHT22;6932;51.438;5.470;2022-12-07T05:08:35;11.90;89.60
13721;DHT22;6932;51.438;5.470;2022-12-07T05:11:02;11.90;89.70
13721;DHT22;6932;51.438;5.470;2022-12-07T05:13:30;11.90;89.60
13721;DHT22;6932;51.438;5.470;2022-12-07T05:15:57;11.90;89.60
13721;DHT22;6932;51.438;5.470;2022-12-07T05:18:22;11.90;89.70
13721;DHT22;6932;51.438;5.470;2022-12-07T05:20:49;12.00;89.80
13721;DHT22;6932;51.438;5.470;2022-12-07T05:23:16;12.00;89.80
13721;DHT22;6932;51.438;5.470;2022-12-07T05:25:43;11.90;89.70
13721;DHT22;6932;51.438;5.470;2022-12-07T05:28:10;12.00;89.80
13721;DHT22;6932;51.438;5.470;2022-12-07T05:30:36;12.00;89.80
13721;DHT22;6932;51.438;5.470;2022-12-07T05:33:01;12.00;89.70
13721;DHT22;6932;51.438;5.470;2022-12-07T05:35:28;12.00;89.70
13721;DHT22;6932;51.438;5.470;2022-12-07T05:37:55;12.00;89.70
13721;DHT22;6932;51.438;5.470;2022-12-07T05:40:22;12.00;89.70
13721;DHT22;6932;51.438;5.470;2022-12-07T05:42:48;12.00;89.70
13721;DHT22;6932;51.438;5.470;2022-12-07T05:45:14;12.00;89.70
13721;DHT22;6932;51.438;5.470;2022-12-07T05:47:40;12.00;89.60
13721;DHT22;6932;51.438;5.470;2022-12-07T05:50:06;12.00;89.60
13721;DHT22;6932;51.438;5.470;2022-12-07T05:52:32;12.00;89.60
13721;DHT22;6932;51.438;5.470;2022-12-07T05:54:58;12.00;89.50
13721;DHT22;6932;51.438;5.470;2022-12-07T05:57:24;12.00;89.50
13721;DHT22;6932;51.438;5.470;2022-12-07T05:59:50;12.00;89.40
13721;DHT22;6932;51.438;5.470;2022-12-07T06:02:16;12.10;89.40
13721;DHT22;6932;51.438;5.470;2022-12-07T06:04:45;12.00;89.30
13721;DHT22;6932;51.438;5.470;2022-12-07T06:07:14;12.00;89.20
13721;DHT22;6932;51.438;5.470;2022-12-07T06:09:41;12.00;89.10
13721;DHT22;6932;51.438;5.470;2022-12-07T06:12:09;12.00;89.00
13721;DHT22;6932;51.438;5.470;2022-12-07T06:14:55;12.00;88.90
13721;DHT22;6932;51.438;5.470;2022-12-07T06:17:21;12.00;88.80
13721;DHT22;6932;51.438;5.470;2022-12-07T06:19:47;12.00;88.80
13721;DHT22;6932;51.438;5.470;2022-12-07T06:22:13;12.00;88.70
13721;DHT22;6932;51.438;5.470;2022-12-07T06:24:39;12.00;88.70
13721;DHT22;6932;51.438;5.470;2022-12-07T06:27:05;12.00;88.60
13721;DHT22;6932;51.438;5.470;2022-12-07T06:29:31;11.90;88.60
13721;DHT22;6932;51.438;5.470;2022-12-07T06:31:57;11.90;88.50
13721;DHT22;6932;51.438;5.470;2022-12-07T06:34:24;11.90;88.50
13721;DHT22;6932;51.438;5.470;2022-12-07T06:36:52;11.90;88.40
13721;DHT22;6932;51.438;5.470;2022-12-07T06:39:22;11.90;88.40
13721;DHT22;6932;51.438;5.470;2022-12-07T06:41:52;11.90;88.40
13721;DHT22;6932;51.438;5.470;2022-12-07T06:44:18;11.80;88.30
13721;DHT22;6932;51.438;5.470;2022-12-07T06:46:44;11.80;88.30
13721;DHT22;6932;51.438;5.470;2022-12-07T06:49:10;11.80;88.30
13721;DHT22;6932;51.438;5.470;2022-12-07T06:51:36;11.80;88.30
13721;DHT22;6932;51.438;5.470;2022-12-07T06:54:13;11.80;88.30
13721;DHT22;6932;51.438;5.470;2022-12-07T06:56:40;11.70;88.20
13721;DHT22;6932;51.438;5.470;2022-12-07T06:59:07;11.70;88.30
13721;DHT22;6932;51.438;5.470;2022-12-07T07:01:34;11.70;88.30
13721;DHT22;6932;51.438;5.470;2022-12-07T07:04:01;11.70;88.30
13721;DHT22;6932;51.438;5.470;2022-12-07T07:06:27;11.70;88.40
13721;DHT22;6932;51.438;5.470;2022-12-07T07:08:53;11.70;88.70
13721;DHT22;6932;51.438;5.470;2022-12-07T07:11:19;11.70;88.40
13721;DHT22;6932;51.438;5.470;2022-12-07T07:13:45;11.70;88.40
13721;DHT22;6932;51.438;5.470;2022-12-07T07:16:11;11.70;88.40
13721;DHT22;6932;51.438;5.470;2022-12-07T07:18:37;11.70;88.40
13721;DHT22;6932;51.438;5.470;2022-12-07T07:21:03;11.70;88.40
13721;DHT22;6932;51.438;5.470;2022-12-07T07:23:29;11.70;88.50
13721;DHT22;6932;51.438;5.470;2022-12-07T07:25:55;11.70;88.50
13721;DHT22;6932;51.438;5.470;2022-12-07T07:28:22;11.70;88.50
13721;DHT22;6932;51.438;5.470;2022-12-07T07:30:48;11.70;88.50
13721;DHT22;6932;51.438;5.470;2022-12-07T07:33:14;11.70;88.60
13721;DHT22;6932;51.438;5.470;2022-12-07T07:35:40;11.60;88.50
13721;DHT22;6932;51.438;5.470;2022-12-07T07:38:07;11.70;88.60
13721;DHT22;6932;51.438;5.470;2022-12-07T07:40:33;11.60;88.50
13721;DHT22;6932;51.438;5.470;2022-12-07T07:42:59;11.60;88.50
13721;DHT22;6932;51.438;5.470;2022-12-07T07:45:26;11.60;88.50
13721;DHT22;6932;51.438;5.470;2022-12-07T07:47:53;11.60;88.40
13721;DHT22;6932;51.438;5.470;2022-12-07T07:50:19;11.60;88.40
13721;DHT22;6932;51.438;5.470;2022-12-07T07:52:45;11.60;88.50
13721;DHT22;6932;51.438;5.470;2022-12-07T07:55:11;11.60;88.50
13721;DHT22;6932;51.438;5.470;2022-12-07T07:57:38;11.60;88.50
13721;DHT22;6932;51.438;5.470;2022-12-07T08:00:08;11.60;88.60
13721;DHT22;6932;51.438;5.470;2022-12-07T08:02:37;11.60;88.60
13721;DHT22;6932;51.438;5.470;2022-12-07T08:05:04;11.70;88.70
13721;DHT22;6932;51.438;5.470;2022-12-07T08:07:30;11.70;88.80
13721;DHT22;6932;51.438;5.470;2022-12-07T08:09:56;11.70;88.80
13721;DHT22;6932;51.438;5.470;2022-12-07T08:12:22;11.70;88.90
13721;DHT22;6932;51.438;5.470;2022-12-07T08:14:47;11.70;89.00
13721;DHT22;6932;51.438;5.470;2022-12-07T08:17:13;11.70;89.00
13721;DHT22;6932;51.438;5.470;2022-12-07T08:19:39;11.80;89.00
13721;DHT22;6932;51.438;5.470;2022-12-07T08:22:05;11.80;88.90
13721;DHT22;6932;51.438;5.470;2022-12-07T08:24:33;11.80;88.80
13721;DHT22;6932;51.438;5.470;2022-12-07T08:27:00;11.80;88.60
13721;DHT22;6932;51.438;5.470;2022-12-07T08:29:25;11.90;88.50
13721;DHT22;6932;51.438;5.470;2022-12-07T08:31:51;11.90;88.50
13721;DHT22;6932;51.438;5.470;2022-12-07T08:34:17;11.90;88.30
13721;DHT22;6932;51.438;5.470;2022-12-07T08:36:43;11.90;88.20
13721;DHT22;6932;51.438;5.470;2022-12-07T08:39:09;11.90;88.10
13721;DHT22;6932;51.438;5.470;2022-12-07T08:41:34;11.90;88.00
13721;DHT22;6932;51.438;5.470;2022-12-07T08:44:00;11.90;88.10
13721;DHT22;6932;51.438;5.470;2022-12-07T08:46:45;11.90;88.00
13721;DHT22;6932;51.438;5.470;2022-12-07T08:49:22;11.90;87.80
13721;DHT22;6932;51.438;5.470;2022-12-07T08:51:51;11.90;87.80
13721;DHT22;6932;51.438;5.470;2022-12-07T08:54:18;11.90;87.80
13721;DHT22;6932;51.438;5.470;2022-12-07T08:56:46;11.90;87.80
13721;DHT22;6932;51.438;5.470;2022-12-07T08:59:14;11.90;88.00
13721;DHT22;6932;51.438;5.470;2022-12-07T09:01:43;11.90;88.10
13721;DHT22;6932;51.438;5.470;2022-12-07T09:04:09;11.90;88.30
13721;DHT22;6932;51.438;5.470;2022-12-07T09:06:35;11.90;88.50
13721;DHT22;6932;51.438;5.470;2022-12-07T09:09:02;12.00;88.90
13721;DHT22;6932;51.438;5.470;2022-12-07T09:11:29;12.00;89.20
13721;DHT22;6932;51.438;5.470;2022-12-07T09:13:55;12.10;89.30
13721;DHT22;6932;51.438;5.470;2022-12-07T09:16:21;12.10;89.20
13721;DHT22;6932;51.438;5.470;2022-12-07T09:18:47;12.20;89.00
13721;DHT22;6932;51.438;5.470;2022-12-07T09:21:13;12.20;88.70
13721;DHT22;6932;51.438;5.470;2022-12-07T09:23:38;12.30;88.50
13721;DHT22;6932;51.438;5.470;2022-12-07T09:26:06;12.30;88.40
13721;DHT22;6932;51.438;5.470;2022-12-07T09:28:32;12.40;88.20
13721;DHT22;6932;51.438;5.470;2022-12-07T09:30:58;12.40;88.00
13721;DHT22;6932;51.438;5.470;2022-12-07T09:33:25;12.40;88.00
13721;DHT22;6932;51.438;5.470;2022-12-07T09:35:51;12.40;87.90
13721;DHT22;6932;51.438;5.470;2022-12-07T09:38:18;12.50;88.00
13721;DHT22;6932;51.438;5.470;2022-12-07T09:40:45;12.50;88.00
13721;DHT22;6932;51.438;5.470;2022-12-07T09:43:21;12.50;88.00
13721;DHT22;6932;51.438;5.470;2022-12-07T09:45:52;12.50;87.90
13721;DHT22;6932;51.438;5.470;2022-12-07T09:48:29;12.50;87.90
13721;DHT22;6932;51.438;5.470;2022-12-07T09:50:59;12.50;87.80
13721;DHT22;6932;51.438;5.470;2022-12-07T09:53:30;12.60;87.80
13721;DHT22;6932;51.438;5.470;2022-12-07T09:55:59;12.60;87.80
13721;DHT22;6932;51.438;5.470;2022-12-07T09:58:28;12.60;87.70
13721;DHT22;6932;51.438;5.470;2022-12-07T10:01:00;12.60;87.60
13721;DHT22;6932;51.438;5.470;2022-12-07T10:03:38;12.60;87.70
13721;DHT22;6932;51.438;5.470;2022-12-07T10:06:06;12.60;87.60
13721;DHT22;6932;51.438;5.470;2022-12-07T10:08:33;12.70;87.80
13721;DHT22;6932;51.438;5.470;2022-12-07T10:11:02;12.70;87.80
13721;DHT22;6932;51.438;5.470;2022-12-07T10:13:46;12.70;87.80
13721;DHT22;6932;51.438;5.470;2022-12-07T10:16:38;12.70;88.30
13721;DHT22;6932;51.438;5.470;2022-12-07T10:19:29;12.80;88.70
13721;DHT22;6932;51.438;5.470;2022-12-07T10:24:29;13.00;89.10
13721;DHT22;6932;51.438;5.470;2022-12-07T10:26:56;13.10;89.30
13721;DHT22;6932;51.438;5.470;2022-12-07T10:29:34;13.20;89.10
13721;DHT22;6932;51.438;5.470;2022-12-07T10:32:32;13.30;88.70
13721;DHT22;6932;51.438;5.470;2022-12-07T10:37:49;13.60;88.50
13721;DHT22;6932;51.438;5.470;2022-12-07T10:40:33;13.70;88.40
13721;DHT22;6932;51.438;5.470;2022-12-07T10:48:38;14.10;87.50
13721;DHT22;6932;51.438;5.470;2022-12-07T10:51:30;14.20;87.10
13721;DHT22;6932;51.438;5.470;2022-12-07T11:00:24;14.60;85.90
13721;DHT22;6932;51.438;5.470;2022-12-07T11:06:22;14.70;85.20
13721;DHT22;6932;51.438;5.470;2022-12-07T11:09:16;14.60;85.40
13721;DHT22;6932;51.438;5.470;2022-12-07T11:12:05;14.70;84.90
13721;DHT22;6932;51.438;5.470;2022-12-07T11:14:56;14.70;84.90
13721;DHT22;6932;51.438;5.470;2022-12-07T11:17:52;14.70;84.80
13721;DHT22;6932;51.438;5.470;2022-12-07T11:23:29;14.80;84.90
13721;DHT22;6932;51.438;5.470;2022-12-07T11:26:12;14.80;84.70
13721;DHT22;6932;51.438;5.470;2022-12-07T11:35:00;15.00;83.80
13721;DHT22;6932;51.438;5.470;2022-12-07T11:37:34;15.00;83.60
13721;DHT22;6932;51.438;5.470;2022-12-07T11:43:13;14.90;83.50
13721;DHT22;6932;51.438;5.470;2022-12-07T11:45:50;14.90;83.30
13721;DHT22;6932;51.438;5.470;2022-12-07T11:49:07;14.90;83.40
13721;DHT22;6932;51.438;5.470;2022-12-07T11:51:39;14.80;83.40
13721;DHT22;6932;51.438;5.470;2022-12-07T11:54:25;14.80;83.20
13721;DHT22;6932;51.438;5.470;2022-12-07T11:56:56;14.70;83.40
13721;DHT22;6932;51.438;5.470;2022-12-07T11:59:33;14.70;83.50
13721;DHT22;6932;51.438;5.470;2022-12-07T12:07:31;14.60;83.50
13721;DHT22;6932;51.438;5.470;2022-12-07T12:10:21;14.60;83.70
13721;DHT22;6932;51.438;5.470;2022-12-07T12:13:28;14.50;83.90
13721;DHT22;6932;51.438;5.470;2022-12-07T12:16:17;14.50;84.00
13721;DHT22;6932;51.438;5.470;2022-12-07T12:19:21;14.50;84.10
13721;DHT22;6932;51.438;5.470;2022-12-07T12:22:18;14.40;84.10
13721;DHT22;6932;51.438;5.470;2022-12-07T12:24:50;14.40;84.20
13721;DHT22;6932;51.438;5.470;2022-12-07T12:27:25;14.40;84.50
13721;DHT22;6932;51.438;5.470;2022-12-07T12:30:00;14.30;84.50
13721;DHT22;6932;51.438;5.470;2022-12-07T12:32:42;14.30;84.50
13721;DHT22;6932;51.438;5.470;2022-12-07T12:37:53;14.20;84.60
13721;DHT22;6932;51.438;5.470;2022-12-07T12:45:32;14.10;85.00
13721;DHT22;6932;51.438;5.470;2022-12-07T12:48:03;14.10;85.30
13721;DHT22;6932;51.438;5.470;2022-12-07T12:50:47;14.20;85.40
13721;DHT22;6932;51.438;5.470;2022-12-07T12:53:23;14.10;85.30
13721;DHT22;6932;51.438;5.470;2022-12-07T12:58:40;14.20;85.30
13721;DHT22;6932;51.438;5.470;2022-12-07T13:04:01;14.20;85.30
13721;DHT22;6932;51.438;5.470;2022-12-07T13:08:56;14.30;84.80
13721;DHT22;6932;51.438;5.470;2022-12-07T13:11:38;14.30;84.80
13721;DHT22;6932;51.438;5.470;2022-12-07T13:19:59;14.40;84.20
13721;DHT22;6932;51.438;5.470;2022-12-07T13:25:17;14.40;83.80
13721;DHT22;6932;51.438;5.470;2022-12-07T13:27:56;14.40;83.60
13721;DHT22;6932;51.438;5.470;2022-12-07T13:30:26;14.40;83.30
13721;DHT22;6932;51.438;5.470;2022-12-07T13:32:56;14.40;83.20
13721;DHT22;6932;51.438;5.470;2022-12-07T13:35:28;14.40;83.30
13721;DHT22;6932;51.438;5.470;2022-12-07T13:37:54;14.40;83.20
13721;DHT22;6932;51.438;5.470;2022-12-07T13:40:22;14.40;83.30
13721;DHT22;6932;51.438;5.470;2022-12-07T13:43:00;14.40;83.20
13721;DHT22;6932;51.438;5.470;2022-12-07T13:45:32;14.40;83.10
13721;DHT22;6932;51.438;5.470;2022-12-07T13:48:23;14.30;83.20
13721;DHT22;6932;51.438;5.470;2022-12-07T13:50:57;14.30;83.40
13721;DHT22;6932;51.438;5.470;2022-12-07T13:53:24;14.30;83.50
13721;DHT22;6932;51.438;5.470;2022-12-07T13:55:56;14.30;83.60
13721;DHT22;6932;51.438;5.470;2022-12-07T13:58:24;14.20;83.60
13721;DHT22;6932;51.438;5.470;2022-12-07T14:00:50;14.20;83.70
13721;DHT22;6932;51.438;5.470;2022-12-07T14:05:44;14.10;83.80
13721;DHT22;6932;51.438;5.470;2022-12-07T14:10:55;14.10;84.00
13721;DHT22;6932;51.438;5.470;2022-12-07T14:13:30;14.10;83.90
13721;DHT22;6932;51.438;5.470;2022-12-07T14:16:34;14.10;83.70
13721;DHT22;6932;51.438;5.470;2022-12-07T14:19:06;14.10;83.80
13721;DHT22;6932;51.438;5.470;2022-12-07T14:22:07;14.10;83.70
13721;DHT22;6932;51.438;5.470;2022-12-07T14:24:44;14.20;83.80
13721;DHT22;6932;51.438;5.470;2022-12-07T14:27:23;14.10;83.80
13721;DHT22;6932;51.438;5.470;2022-12-07T14:29:56;14.10;83.80
13721;DHT22;6932;51.438;5.470;2022-12-07T14:32:26;14.10;83.80
13721;DHT22;6932;51.438;5.470;2022-12-07T14:35:08;14.10;83.70
13721;DHT22;6932;51.438;5.470;2022-12-07T14:37:37;14.10;83.70
13721;DHT22;6932;51.438;5.470;2022-12-07T14:40:04;14.00;83.70
13721;DHT22;6932;51.438;5.470;2022-12-07T14:42:31;14.00;83.90
13721;DHT22;6932;51.438;5.470;2022-12-07T14:44:59;14.00;84.00
13721;DHT22;6932;51.438;5.470;2022-12-07T14:47:26;14.00;84.10
13721;DHT22;6932;51.438;5.470;2022-12-07T14:49:52;14.00;84.10
13721;DHT22;6932;51.438;5.470;2022-12-07T14:52:23;14.00;84.20
13721;DHT22;6932;51.438;5.470;2022-12-07T14:54:53;14.00;84.30
13721;DHT22;6932;51.438;5.470;2022-12-07T14:57:19;14.00;84.30
13721;DHT22;6932;51.438;5.470;2022-12-07T14:59:45;14.00;84.20
13721;DHT22;6932;51.438;5.470;2022-12-07T15:02:12;14.00;84.20
13721;DHT22;6932;51.438;5.470;2022-12-07T15:04:39;14.00;84.20
13721;DHT22;6932;51.438;5.470;2022-12-07T15:07:09;14.00;84.20
13721;DHT22;6932;51.438;5.470;2022-12-07T15:09:40;13.90;84.00
13721;DHT22;6932;51.438;5.470;2022-12-07T15:12:06;13.90;83.90
13721;DHT22;6932;51.438;5.470;2022-12-07T15:14:32;13.90;83.80
13721;DHT22;6932;51.438;5.470;2022-12-07T15:16:57;13.90;83.80
13721;DHT22;6932;51.438;5.470;2022-12-07T15:19:24;13.80;83.70
13721;DHT22;6932;51.438;5.470;2022-12-07T15:21:52;13.80;83.70
13721;DHT22;6932;51.438;5.470;2022-12-07T15:24:19;13.80;83.60
13721;DHT22;6932;51.438;5.470;2022-12-07T15:26:45;13.70;83.50
13721;DHT22;6932;51.438;5.470;2022-12-07T15:29:12;13.80;83.60
13721;DHT22;6932;51.438;5.470;2022-12-07T15:31:39;13.70;83.50
13721;DHT22;6932;51.438;5.470;2022-12-07T15:34:05;13.70;83.60
13721;DHT22;6932;51.438;5.470;2022-12-07T15:36:32;13.70;83.60
13721;DHT22;6932;51.438;5.470;2022-12-07T15:38:59;13.60;83.60
13721;DHT22;6932;51.438;5.470;2022-12-07T15:41:26;13.60;83.70
13721;DHT22;6932;51.438;5.470;2022-12-07T15:43:53;13.60;83.70
13721;DHT22;6932;51.438;5.470;2022-12-07T15:46:39;13.60;83.70
13721;DHT22;6932;51.438;5.470;2022-12-07T15:49:17;13.50;83.80
13721;DHT22;6932;51.438;5.470;2022-12-07T15:51:44;13.50;83.80
13721;DHT22;6932;51.438;5.470;2022-12-07T15:54:29;13.50;83.90
13721;DHT22;6932;51.438;5.470;2022-12-07T15:56:57;13.40;84.00
13721;DHT22;6932;51.438;5.470;2022-12-07T15:59:25;13.50;84.10
13721;DHT22;6932;51.438;5.470;2022-12-07T16:01:52;13.40;84.10
13721;DHT22;6932;51.438;5.470;2022-12-07T16:04:18;13.40;84.30
13721;DHT22;6932;51.438;5.470;2022-12-07T16:06:44;13.30;84.40
13721;DHT22;6932;51.438;5.470;2022-12-07T16:09:10;13.30;84.50
13721;DHT22;6932;51.438;5.470;2022-12-07T16:11:36;13.30;84.60
13721;DHT22;6932;51.438;5.470;2022-12-07T16:14:02;13.30;84.70
13721;DHT22;6932;51.438;5.470;2022-12-07T16:16:28;13.30;84.90
13721;DHT22;6932;51.438;5.470;2022-12-07T16:18:54;13.30;84.90
13721;DHT22;6932;51.438;5.470;2022-12-07T16:21:20;13.30;85.00
13721;DHT22;6932;51.438;5.470;2022-12-07T16:23:46;13.30;85.10
13721;DHT22;6932;51.438;5.470;2022-12-07T16:26:15;13.30;85.00
13721;DHT22;6932;51.438;5.470;2022-12-07T16:28:44;13.30;85.10
13721;DHT22;6932;51.438;5.470;2022-12-07T16:31:15;13.30;85.10
13721;DHT22;6932;51.438;5.470;2022-12-07T16:33:43;13.30;85.10
13721;DHT22;6932;51.438;5.470;2022-12-07T16:36:10;13.30;85.10
13721;DHT22;6932;51.438;5.470;2022-12-07T16:38:37;13.30;85.00
13721;DHT22;6932;51.438;5.470;2022-12-07T16:41:04;13.30;85.00
13721;DHT22;6932;51.438;5.470;2022-12-07T16:43:32;13.20;84.90
13721;DHT22;6932;51.438;5.470;2022-12-07T16:45:58;13.20;84.80
13721;DHT22;6932;51.438;5.470;2022-12-07T16:48:23;13.20;85.50
13721;DHT22;6932;51.438;5.470;2022-12-07T16:50:49;13.20;84.80
13721;DHT22;6932;51.438;5.470;2022-12-07T16:53:15;13.20;84.80
13721;DHT22;6932;51.438;5.470;2022-12-07T16:55:43;13.20;84.70
13721;DHT22;6932;51.438;5.470;2022-12-07T16:58:11;13.10;84.60
13721;DHT22;6932;51.438;5.470;2022-12-07T17:00:39;13.10;84.50
13721;DHT22;6932;51.438;5.470;2022-12-07T17:03:06;13.10;84.50
13721;DHT22;6932;51.438;5.470;2022-12-07T17:05:32;13.10;84.40
13721;DHT22;6932;51.438;5.470;2022-12-07T17:07:58;13.10;84.40
13721;DHT22;6932;51.438;5.470;2022-12-07T17:10:25;13.10;84.40
13721;DHT22;6932;51.438;5.470;2022-12-07T17:12:51;13.10;84.30
13721;DHT22;6932;51.438;5.470;2022-12-07T17:15:17;13.00;84.30
13721;DHT22;6932;51.438;5.470;2022-12-07T17:17:52;13.10;84.30
13721;DHT22;6932;51.438;5.470;2022-12-07T17:20:20;13.10;84.30
13721;DHT22;6932;51.438;5.470;2022-12-07T17:22:48;13.00;84.30
13721;DHT22;6932;51.438;5.470;2022-12-07T17:25:15;13.00;84.40
13721;DHT22;6932;51.438;5.470;2022-12-07T17:27:41;13.00;84.50
13721;DHT22;6932;51.438;5.470;2022-12-07T17:30:08;13.00;84.50
13721;DHT22;6932;51.438;5.470;2022-12-07T17:32:35;13.00;84.60
13721;DHT22;6932;51.438;5.470;2022-12-07T17:35:01;13.00;84.60
13721;DHT22;6932;51.438;5.470;2022-12-07T17:37:27;13.10;84.70
13721;DHT22;6932;51.438;5.470;2022-12-07T17:39:53;13.00;84.60
13721;DHT22;6932;51.438;5.470;2022-12-07T17:42:23;13.10;84.70
13721;DHT22;6932;51.438;5.470;2022-12-07T17:45:03;13.00;84.60
13721;DHT22;6932;51.438;5.470;2022-12-07T17:47:30;13.00;84.50
13721;DHT22;6932;51.438;5.470;2022-12-07T17:49:56;13.00;84.50
13721;DHT22;6932;51.438;5.470;2022-12-07T17:52:22;13.00;84.60
13721;DHT22;6932;51.438;5.470;2022-12-07T17:55:07;13.00;84.60